Time;durP1;ratioP1;P1;durP2;ratioP2;P2;SDS_P1;SDS_P2;PMS_P1;PMS_P2;Temp;Humidity;BMP_temperature;BMP_pressure;BME280_temperature;BME280_humidity;BME280_pressure;Samples;Min_cycle;Max_cycle;Signal;HPM_P1;HPM_P2
2023/05/30 00:01:56;;;;;;;0.73;0.73;;;11.00;1.00;;;;;;5020934;28;20045;-86
2023/05/30 00:04:23;;;;;;;0.37;0.37;;;11.00;1.00;;;;;;5021805;28;20041;-85
2023/05/30 00:06:48;;;;;;;;;;;10.90;1.00;;;;;;5003127;28;20124;-87
2023/05/30 00:09:14;;;;;;;0.17;0.17;;;11.00;1.00;;;;;;5020587;28;19996;-87
2023/05/30 00:11:40;;;;;;;0.63;0.30;;;11.00;1.00;;;;;;5015388;28;20068;-85
2023/05/30 00:14:06;;;;;;;0.10;0.10;;;11.00;1.00;;;;;;5022125;28;20052;-86
2023/05/30 00:16:31;;;;;;;0.50;0.30;;;10.90;1.00;;;;;;5021074;28;20387;-86
2023/05/30 00:18:57;;;;;;;1.23;0.40;;;10.90;1.00;;;;;;5024369;28;20071;-85
2023/05/30 00:21:23;;;;;;;0.50;0.50;;;10.90;1.00;;;;;;5023646;28;20371;-85
2023/05/30 00:23:49;;;;;;;0.50;0.40;;;10.90;1.00;;;;;;5004530;28;20048;-86
2023/05/30 00:26:15;;;;;;;1.50;0.40;;;10.90;1.00;;;;;;4989772;28;20053;-85
2023/05/30 00:28:42;;;;;;;0.40;0.40;;;10.90;1.00;;;;;;5002319;28;20045;-86
2023/05/30 00:31:08;;;;;;;;;;;10.90;1.00;;;;;;5025679;28;20441;-85
2023/05/30 00:33:34;;;;;;;0.60;0.38;;;10.80;1.00;;;;;;5019246;28;19921;-86
2023/05/30 00:36:00;;;;;;;0.43;0.40;;;10.90;1.00;;;;;;5002098;28;20049;-85
2023/05/30 00:38:26;;;;;;;0.55;0.52;;;10.80;1.00;;;;;;5021103;28;20056;-85
2023/05/30 00:40:51;;;;;;;0.10;0.10;;;10.90;1.00;;;;;;5019091;28;20053;-85
2023/05/30 00:43:22;;;;;;;0.30;0.30;;;10.90;1.00;;;;;;5021474;28;20044;-85
2023/05/30 00:45:52;;;;;;;0.20;0.20;;;10.80;1.00;;;;;;5004419;28;20045;-85
2023/05/30 00:48:19;;;;;;;2.83;1.00;;;10.80;1.00;;;;;;4998058;28;20112;-85
2023/05/30 00:50:47;;;;;;;0.52;0.52;;;9.90;1.00;;;;;;5014913;28;20077;-85
2023/05/30 00:53:14;;;;;;;0.47;0.40;;;10.80;1.00;;;;;;4998706;28;20042;-85
2023/05/30 00:55:40;;;;;;;0.25;0.25;;;10.80;1.00;;;;;;4998275;28;20049;-86
2023/05/30 00:58:06;;;;;;;0.50;0.50;;;10.80;1.00;;;;;;4996359;28;20060;-85
2023/05/30 01:00:37;;;;;;;0.40;0.40;;;10.80;1.00;;;;;;5035182;28;20080;-85
2023/05/30 01:03:04;;;;;;;0.40;0.40;;;10.80;1.00;;;;;;5037037;28;20361;-85
2023/05/30 01:05:29;;;;;;;0.35;0.35;;;11.20;1.00;;;;;;5019142;28;20120;-85
2023/05/30 01:07:55;;;;;;;0.15;0.15;;;10.80;1.00;;;;;;5018648;28;20044;-85
2023/05/30 01:10:22;;;;;;;0.55;0.40;;;10.80;1.00;;;;;;5002577;28;20467;-85
2023/05/30 01:13:11;;;;;;;0.77;0.35;;;10.80;1.00;;;;;;5005836;28;20057;-85
2023/05/30 01:15:47;;;;;;;0.30;0.30;;;10.70;1.00;;;;;;5023190;28;20055;-85
2023/05/30 01:18:43;;;;;;;0.35;0.28;;;10.70;1.00;;;;;;5026992;28;20045;-86
2023/05/30 01:21:10;;;;;;;0.25;0.25;;;10.80;1.00;;;;;;5025122;28;20049;-86
2023/05/30 01:23:50;;;;;;;0.30;0.30;;;10.80;1.00;;;;;;5008885;28;20038;-86
2023/05/30 01:26:35;;;;;;;0.20;0.20;;;9.90;1.00;;;;;;5007241;28;20107;-86
2023/05/30 01:29:02;;;;;;;1.65;0.65;;;10.70;1.00;;;;;;5022499;28;20041;-87
2023/05/30 01:31:30;;;;;;;0.85;0.40;;;10.70;1.00;;;;;;4992455;28;20036;-85
2023/05/30 01:33:57;;;;;;;0.38;0.38;;;10.70;1.00;;;;;;5005849;28;20124;-86
2023/05/30 01:36:22;;;;;;;0.40;0.40;;;10.70;1.00;;;;;;4990334;28;20051;-86
2023/05/30 01:38:48;;;;;;;0.23;0.23;;;10.70;1.00;;;;;;5008353;28;20045;-86
2023/05/30 01:41:21;;;;;;;0.50;0.47;;;10.70;1.00;;;;;;5010552;28;20044;-85
2023/05/30 01:43:56;;;;;;;1.83;0.57;;;10.60;1.00;;;;;;5005351;28;20045;-86
2023/05/30 01:46:32;;;;;;;0.65;0.47;;;10.70;1.00;;;;;;5021689;28;20076;-87
2023/05/30 01:49:01;;;;;;;0.65;0.52;;;10.70;1.00;;;;;;5005897;28;20034;-87
2023/05/30 01:51:50;;;;;;;0.10;0.10;;;10.70;1.00;;;;;;5022445;28;20049;-86
2023/05/30 01:54:19;;;;;;;1.75;0.73;;;10.70;1.00;;;;;;5024314;28;20045;-85
2023/05/30 01:56:48;;;;;;;0.40;0.40;;;10.70;1.00;;;;;;5021010;28;20048;-86
2023/05/30 01:59:15;;;;;;;0.40;0.40;;;10.60;1.00;;;;;;5023221;28;20049;-86
2023/05/30 02:01:42;;;;;;;0.10;0.10;;;10.70;1.00;;;;;;5025285;28;20387;-85
2023/05/30 02:04:09;;;;;;;0.50;0.50;;;10.60;1.00;;;;;;5031626;28;20053;-85
2023/05/30 02:06:35;;;;;;;0.20;0.20;;;11.60;1.00;;;;;;5005060;28;20096;-85
2023/05/30 02:09:04;;;;;;;0.23;0.17;;;10.60;1.00;;;;;;4989482;28;20048;-86
2023/05/30 02:11:30;;;;;;;0.10;0.10;;;10.60;1.00;;;;;;5025011;28;20064;-85
2023/05/30 02:13:57;;;;;;;0.38;0.38;;;10.60;1.00;;;;;;5007217;28;20076;-85
2023/05/30 02:16:24;;;;;;;2.58;0.40;;;10.60;1.00;;;;;;5025025;28;20049;-85
2023/05/30 02:18:50;;;;;;;0.38;0.38;;;10.60;1.00;;;;;;5021386;28;20041;-86
2023/05/30 02:21:16;;;;;;;0.38;0.28;;;10.60;1.00;;;;;;5006170;28;20073;-85
2023/05/30 02:23:41;;;;;;;0.27;0.27;;;10.60;1.00;;;;;;5021449;28;20091;-86
2023/05/30 02:26:09;;;;;;;0.60;0.60;;;10.60;1.00;;;;;;5025096;28;20044;-85
2023/05/30 02:28:35;;;;;;;0.15;0.15;;;10.60;1.00;;;;;;5022188;28;20471;-86
2023/05/30 02:31:02;;;;;;;0.20;0.20;;;10.60;1.00;;;;;;5008541;28;20071;-85
2023/05/30 02:33:28;;;;;;;0.55;0.40;;;10.50;1.00;;;;;;5023435;28;20480;-86
2023/05/30 02:35:54;;;;;;;0.85;0.40;;;10.50;1.00;;;;;;5006878;28;20080;-85
2023/05/30 02:38:20;;;;;;;0.33;0.27;;;10.60;1.00;;;;;;4974015;28;20077;-86
2023/05/30 02:40:46;;;;;;;0.67;0.50;;;10.60;1.00;;;;;;5040350;28;20517;-86
2023/05/30 02:43:12;;;;;;;0.10;0.10;;;10.60;1.00;;;;;;5040328;28;20041;-85
2023/05/30 02:45:38;;;;;;;0.57;0.52;;;10.60;1.00;;;;;;5022518;28;20090;-85
2023/05/30 02:48:04;;;;;;;0.40;0.40;;;10.60;1.00;;;;;;5026615;28;20037;-85
2023/05/30 02:50:30;;;;;;;0.50;0.50;;;10.60;1.00;;;;;;5022762;28;20044;-85
2023/05/30 02:52:55;;;;;;;0.30;0.30;;;10.60;1.00;;;;;;5002722;28;20113;-86
2023/05/30 02:55:21;;;;;;;1.10;0.33;;;10.50;1.00;;;;;;5024034;28;20040;-86
2023/05/30 02:57:47;;;;;;;0.40;0.40;;;10.50;1.00;;;;;;5002778;28;20041;-85
2023/05/30 03:00:14;;;;;;;0.57;0.30;;;10.50;1.00;;;;;;4991427;28;20279;-86
2023/05/30 03:02:39;;;;;;;0.20;0.20;;;10.50;1.00;;;;;;5023674;28;20049;-85
2023/05/30 03:05:06;;;;;;;0.20;0.13;;;10.60;1.00;;;;;;5006888;28;20033;-85
2023/05/30 03:07:32;;;;;;;0.20;0.20;;;10.50;1.00;;;;;;5025531;28;20040;-86
2023/05/30 03:09:58;;;;;;;0.30;0.30;;;10.60;1.00;;;;;;5016256;28;20049;-85
2023/05/30 03:12:24;;;;;;;0.30;0.30;;;10.60;1.00;;;;;;5016047;28;20049;-86
2023/05/30 03:14:50;;;;;;;0.40;0.40;;;10.60;1.00;;;;;;5020416;28;20040;-85
2023/05/30 03:17:15;;;;;;;0.20;0.20;;;10.60;1.00;;;;;;5003832;28;20053;-86
2023/05/30 03:19:41;;;;;;;0.50;0.50;;;10.60;1.00;;;;;;5007953;28;20040;-86
2023/05/30 03:22:07;;;;;;;0.27;0.27;;;10.60;1.00;;;;;;4996237;28;20327;-85
2023/05/30 03:24:33;;;;;;;0.30;0.30;;;10.60;1.00;;;;;;5018518;28;20041;-85
2023/05/30 03:26:59;;;;;;;0.22;0.17;;;10.60;1.00;;;;;;5004842;28;20037;-86
2023/05/30 03:29:25;;;;;;;4.07;0.37;;;10.60;1.00;;;;;;5000144;28;20131;-85
2023/05/30 03:31:51;;;;;;;0.20;0.20;;;10.50;1.00;;;;;;5014524;28;20280;-86
2023/05/30 03:34:18;;;;;;;0.30;0.30;;;10.50;1.00;;;;;;5004575;28;20043;-85
2023/05/30 03:36:44;;;;;;;1.45;0.63;;;10.40;1.00;;;;;;5019725;28;20390;-85
2023/05/30 03:39:09;;;;;;;0.20;0.20;;;10.50;1.00;;;;;;5019120;28;20049;-85
2023/05/30 03:41:35;;;;;;;0.70;0.47;;;10.50;1.00;;;;;;5035973;28;20059;-85
2023/05/30 03:44:01;;;;;;;0.60;0.53;;;10.50;1.00;;;;;;5010911;28;20096;-86
2023/05/30 03:46:26;;;;;;;0.23;0.20;;;10.60;1.00;;;;;;5033362;28;20053;-85
2023/05/30 03:48:52;;;;;;;0.53;0.50;;;10.60;1.00;;;;;;5018225;28;20089;-86
2023/05/30 03:51:18;;;;;;;0.30;0.30;;;10.60;1.00;;;;;;5001659;28;20052;-85
2023/05/30 03:53:44;;;;;;;0.38;0.38;;;10.60;1.00;;;;;;4977455;28;20510;-85
2023/05/30 03:56:10;;;;;;;2.83;0.67;;;10.70;1.00;;;;;;4996011;28;20041;-85
2023/05/30 03:58:35;;;;;;;0.53;0.10;;;10.70;1.00;;;;;;4996321;28;20045;-85
2023/05/30 04:01:01;;;;;;;0.10;0.10;;;10.70;1.00;;;;;;4960721;28;20042;-85
2023/05/30 04:03:28;;;;;;;0.87;0.30;;;10.70;1.00;;;;;;4996251;28;20042;-85
2023/05/30 04:05:55;;;;;;;0.52;0.30;;;10.70;1.00;;;;;;4995530;28;20046;-85
2023/05/30 04:08:22;;;;;;;0.28;0.28;;;10.70;1.00;;;;;;4998577;28;20128;-85
2023/05/30 04:10:48;;;;;;;;;;;10.70;1.00;;;;;;4996612;28;20050;-85
2023/05/30 04:13:15;;;;;;;0.57;0.20;;;10.70;1.00;;;;;;5009994;28;19921;-85
2023/05/30 04:15:41;;;;;;;0.35;0.35;;;10.70;1.00;;;;;;4999156;28;20076;-85
2023/05/30 04:18:07;;;;;;;0.33;0.30;;;10.70;1.00;;;;;;4995211;28;20131;-85
2023/05/30 04:20:33;;;;;;;0.20;0.20;;;10.70;1.00;;;;;;5018676;28;20380;-85
2023/05/30 04:22:59;;;;;;;0.20;0.20;;;10.70;1.00;;;;;;5000513;28;20459;-85
2023/05/30 04:25:25;;;;;;;0.80;0.38;;;10.70;1.00;;;;;;5016166;28;20107;-85
2023/05/30 04:27:53;;;;;;;0.83;0.37;;;10.80;1.00;;;;;;5013445;28;20069;-85
2023/05/30 04:30:19;;;;;;;0.30;0.20;;;10.80;1.00;;;;;;4997767;28;20046;-86
2023/05/30 04:32:45;;;;;;;0.23;0.23;;;10.80;1.00;;;;;;4998746;28;20132;-85
2023/05/30 04:35:13;;;;;;;0.32;0.30;;;10.80;1.00;;;;;;5014141;28;20045;-86
2023/05/30 04:37:43;;;;;;;0.50;0.50;;;10.90;1.00;;;;;;5011063;28;20068;-86
2023/05/30 04:40:12;;;;;;;0.40;0.40;;;10.90;1.00;;;;;;5009107;28;20046;-85
2023/05/30 04:42:40;;;;;;;0.22;0.22;;;10.90;1.00;;;;;;4983149;28;20061;-86
2023/05/30 04:45:06;;;;;;;0.73;0.30;;;10.90;1.00;;;;;;5013424;28;20474;-85
2023/05/30 04:47:33;;;;;;;0.38;0.38;;;11.00;1.00;;;;;;5034261;28;20499;-86
2023/05/30 04:50:02;;;;;;;0.30;0.20;;;11.00;1.00;;;;;;4996690;28;20490;-85
2023/05/30 04:52:28;;;;;;;0.73;0.43;;;11.00;1.00;;;;;;5016142;28;20391;-85
2023/05/30 04:54:55;;;;;;;0.47;0.47;;;11.00;1.00;;;;;;4997718;28;20049;-85
2023/05/30 04:57:21;;;;;;;0.45;0.45;;;11.10;1.00;;;;;;5014733;28;20491;-85
2023/05/30 04:59:47;;;;;;;0.80;0.35;;;11.10;1.00;;;;;;4999009;28;20091;-85
2023/05/30 05:02:13;;;;;;;0.90;0.20;;;11.10;1.00;;;;;;4989174;28;20077;-85
2023/05/30 05:04:39;;;;;;;0.38;0.30;;;11.20;1.00;;;;;;4995632;28;20379;-85
2023/05/30 05:07:05;;;;;;;0.20;0.20;;;11.20;1.00;;;;;;4979198;28;20046;-86
2023/05/30 05:09:31;;;;;;;2.50;0.33;;;11.20;1.00;;;;;;4995733;28;20370;-85
2023/05/30 05:11:57;;;;;;;0.40;0.20;;;11.20;1.00;;;;;;4995548;28;20042;-85
2023/05/30 05:14:23;;;;;;;1.20;0.90;;;11.20;1.00;;;;;;4992660;28;20130;-85
2023/05/30 05:16:49;;;;;;;0.20;0.20;;;11.20;1.00;;;;;;4979336;28;20042;-85
2023/05/30 05:19:15;;;;;;;0.55;0.55;;;11.30;1.00;;;;;;5011489;28;20046;-85
2023/05/30 05:21:41;;;;;;;0.30;0.30;;;11.30;1.00;;;;;;5018331;28;20395;-85
2023/05/30 05:24:09;;;;;;;0.30;0.30;;;11.30;1.00;;;;;;5022692;28;20120;-88
2023/05/30 05:26:35;;;;;;;0.77;0.25;;;11.40;1.00;;;;;;5000432;28;20554;-85
2023/05/30 05:29:01;;;;;;;0.73;0.73;;;11.40;1.00;;;;;;4996053;28;20073;-85
2023/05/30 05:31:27;;;;;;;0.50;0.50;;;11.40;1.00;;;;;;5003491;28;20072;-85
2023/05/30 05:33:53;;;;;;;0.32;0.32;;;11.40;1.00;;;;;;5012920;28;20125;-87
2023/05/30 05:36:20;;;;;;;0.50;0.50;;;11.50;1.00;;;;;;4978016;28;20034;-85
2023/05/30 05:38:46;;;;;;;0.10;0.10;;;11.50;1.00;;;;;;5003783;28;20042;-86
2023/05/30 05:41:12;;;;;;;0.60;0.50;;;11.50;1.00;;;;;;5012924;28;20037;-84
2023/05/30 05:43:41;;;;;;;0.65;0.65;;;11.40;1.00;;;;;;5004080;28;20099;-87
2023/05/30 05:46:06;;;;;;;0.30;0.20;;;11.40;1.00;;;;;;5004655;28;20034;-86
2023/05/30 05:48:32;;;;;;;0.93;0.93;;;11.40;1.00;;;;;;5021071;28;20037;-87
2023/05/30 05:50:58;;;;;;;0.57;0.32;;;11.50;1.00;;;;;;5019695;28;20041;-87
2023/05/30 05:53:24;;;;;;;1.40;0.40;;;11.50;1.00;;;;;;5002628;28;20045;-88
2023/05/30 05:55:50;;;;;;;0.20;0.20;;;11.40;1.00;;;;;;4998245;28;20058;-86
2023/05/30 05:58:15;;;;;;;1.33;0.43;;;11.50;1.00;;;;;;4983809;28;20034;-87
2023/05/30 06:00:41;;;;;;;0.50;0.50;;;11.50;1.00;;;;;;5012194;28;20088;-88
2023/05/30 06:03:07;;;;;;;0.87;0.50;;;11.50;1.00;;;;;;4999130;28;20029;-90
2023/05/30 06:05:33;;;;;;;0.10;0.10;;;11.50;1.00;;;;;;4973230;28;20602;-90
2023/05/30 06:07:58;;;;;;;0.67;0.50;;;11.50;1.00;;;;;;5019170;28;20117;-86
2023/05/30 06:10:25;;;;;;;1.57;0.80;;;11.50;1.00;;;;;;4998896;28;20048;-85
2023/05/30 06:12:51;;;;;;;0.20;0.20;;;11.50;1.00;;;;;;5004368;28;20068;-91
2023/05/30 06:15:17;;;;;;;0.60;0.60;;;11.50;1.00;;;;;;5008435;28;20038;-88
2023/05/30 06:17:43;;;;;;;0.57;0.20;;;11.50;1.00;;;;;;5015575;28;20124;-86
2023/05/30 06:20:09;;;;;;;0.20;0.20;;;11.50;1.00;;;;;;5020987;28;20380;-87
2023/05/30 06:22:35;;;;;;;0.35;0.35;;;11.50;1.00;;;;;;5021570;28;20113;-87
2023/05/30 06:25:01;;;;;;;0.40;0.30;;;11.50;1.00;;;;;;5004969;28;20435;-86
2023/05/30 06:27:26;;;;;;;1.35;0.80;;;11.50;1.00;;;;;;5014684;28;20033;-88
2023/05/30 06:29:53;;;;;;;0.50;0.50;;;11.40;1.00;;;;;;5009904;28;20064;-86
2023/05/30 06:32:35;;;;;;;0.40;0.38;;;11.50;1.00;;;;;;5016654;28;20491;-87
2023/05/30 06:35:01;;;;;;;0.40;0.40;;;11.50;1.00;;;;;;5005626;28;20036;-87
2023/05/30 06:37:26;;;;;;;0.80;0.80;;;11.50;1.00;;;;;;5005793;28;20046;-87
2023/05/30 06:39:54;;;;;;;0.53;0.53;;;11.50;1.00;;;;;;4970380;28;20050;-87
2023/05/30 06:42:22;;;;;;;0.60;0.20;;;11.50;1.00;;;;;;5011190;28;20038;-89
2023/05/30 06:44:58;;;;;;;;;;;;;;;;;;;;;
2023/05/30 06:47:27;;;;;;;0.20;0.20;;;11.40;1.00;;;;;;4999257;28;20045;-90
2023/05/30 06:49:57;;;;;;;0.22;0.22;;;11.50;1.00;;;;;;4978136;28;20507;-88
2023/05/30 06:52:31;;;;;;;0.22;0.22;;;11.50;1.00;;;;;;4988706;28;20038;-88
2023/05/30 06:55:00;;;;;;;0.20;0.20;;;11.60;1.00;;;;;;4993007;28;20152;-88
2023/05/30 06:57:26;;;;;;;0.60;0.15;;;11.60;1.00;;;;;;4983730;28;20088;-85
2023/05/30 06:59:54;;;;;;;0.23;0.23;;;11.50;1.00;;;;;;4994385;28;20420;-88
2023/05/30 07:02:22;;;;;;;0.20;0.20;;;11.60;1.00;;;;;;4993972;28;20053;-89
2023/05/30 07:04:51;;;;;;;0.65;0.40;;;11.70;1.00;;;;;;4980037;28;20518;-87
2023/05/30 07:07:16;;;;;;;0.35;0.30;;;11.70;1.00;;;;;;5010491;28;20049;-86
2023/05/30 07:09:42;;;;;;;0.23;0.23;;;11.70;1.00;;;;;;4976033;28;20054;-84
2023/05/30 07:12:09;;;;;;;0.10;0.10;;;11.80;1.00;;;;;;5000618;28;20404;-85
2023/05/30 07:14:35;;;;;;;0.20;0.20;;;11.80;1.00;;;;;;5008972;28;20049;-83
2023/05/30 07:17:01;;;;;;;0.10;0.10;;;11.80;1.00;;;;;;5014606;28;20037;-84
2023/05/30 07:19:27;;;;;;;0.93;0.57;;;11.80;1.00;;;;;;5011255;28;20400;-84
2023/05/30 07:21:52;;;;;;;0.17;0.17;;;11.90;4.00;;;;;;5012998;28;20049;-84
2023/05/30 07:24:18;;;;;;;0.50;0.13;;;11.80;4.30;;;;;;4986598;28;20041;-84
2023/05/30 07:26:44;;;;;;;0.17;0.17;;;11.80;10.20;;;;;;5002241;28;20038;-84
2023/05/30 07:29:10;;;;;;;0.30;0.30;;;11.80;12.20;;;;;;5020793;28;20120;-85
2023/05/30 07:31:35;;;;;;;0.77;0.10;;;11.80;9.70;;;;;;5021049;28;20080;-84
2023/05/30 07:34:01;;;;;;;0.17;0.10;;;11.90;8.60;;;;;;5001374;28;20484;-84
2023/05/30 07:36:27;;;;;;;0.10;0.10;;;11.90;2.80;;;;;;5019459;28;20049;-84
2023/05/30 07:38:52;;;;;;;0.20;0.20;;;12.00;1.00;;;;;;4969026;28;20169;-84
2023/05/30 07:41:18;;;;;;;0.10;0.10;;;12.00;7.80;;;;;;4983972;28;20376;-85
2023/05/30 07:43:44;;;;;;;0.23;0.23;;;12.00;9.40;;;;;;5004440;28;20060;-85
2023/05/30 07:46:10;;;;;;;0.57;0.30;;;12.10;1.60;;;;;;5019827;28;20073;-84
2023/05/30 07:48:35;;;;;;;0.47;0.23;;;12.10;4.30;;;;;;5017900;28;20089;-84
2023/05/30 07:51:01;;;;;;;0.00;0.00;;;12.10;7.50;;;;;;5015941;28;20293;-84
2023/05/30 07:53:27;;;;;;;0.07;0.07;;;12.20;1.00;;;;;;5012005;28;20046;-84
2023/05/30 07:55:52;;;;;;;0.30;0.30;;;12.20;1.00;;;;;;4994312;28;20061;-84
2023/05/30 07:58:18;;;;;;;0.30;0.10;;;12.30;1.00;;;;;;4979543;28;20053;-84
2023/05/30 08:00:44;;;;;;;0.03;0.03;;;12.30;1.00;;;;;;5012064;28;20053;-84
2023/05/30 08:03:09;;;;;;;0.53;0.23;;;12.40;1.00;;;;;;5012580;28;20041;-84
2023/05/30 08:05:35;;;;;;;0.10;0.10;;;12.40;1.00;;;;;;5013554;28;20096;-81
2023/05/30 08:08:01;;;;;;;0.00;0.00;;;12.50;1.00;;;;;;5002566;28;20057;-83
2023/05/30 08:10:26;;;;;;;0.17;0.17;;;12.50;1.00;;;;;;5021436;28;20187;-87
2023/05/30 08:12:52;;;;;;;0.00;0.00;;;12.50;1.00;;;;;;5017211;28;20103;-84
2023/05/30 08:15:18;;;;;;;0.00;0.00;;;12.60;1.00;;;;;;5003923;28;20284;-83
2023/05/30 08:17:44;;;;;;;0.10;0.10;;;12.70;1.00;;;;;;5022183;28;20129;-83
2023/05/30 08:20:12;;;;;;;0.00;0.00;;;12.80;1.00;;;;;;5016756;28;20059;-83
2023/05/30 08:22:38;;;;;;;0.10;0.10;;;12.80;1.00;;;;;;5018030;28;20052;-84
2023/05/30 08:25:04;;;;;;;2.05;0.10;;;12.80;1.00;;;;;;5018101;28;20132;-83
2023/05/30 08:27:31;;;;;;;;;;;12.80;1.00;;;;;;5020484;28;20041;-84
2023/05/30 08:29:57;;;;;;;0.22;0.13;;;12.70;1.10;;;;;;5000217;28;19921;-83
2023/05/30 08:32:23;;;;;;;0.35;0.10;;;12.80;1.00;;;;;;5003216;28;20053;-83
2023/05/30 08:34:48;;;;;;;0.40;0.20;;;12.80;1.00;;;;;;5019629;28;20052;-84
2023/05/30 08:37:15;;;;;;;0.10;0.10;;;12.90;1.00;;;;;;5015731;28;20483;-84
2023/05/30 08:39:40;;;;;;;0.10;0.10;;;13.00;1.00;;;;;;5022088;28;20081;-83
2023/05/30 08:42:06;;;;;;;0.07;0.07;;;13.00;1.00;;;;;;5017961;28;20123;-84
2023/05/30 08:44:33;;;;;;;0.20;0.20;;;13.00;1.00;;;;;;4995963;28;20561;-87
2023/05/30 08:46:59;;;;;;;0.47;0.30;;;13.00;1.00;;;;;;5000300;28;20061;-88
2023/05/30 08:49:31;;;;;;;0.20;0.10;;;13.00;1.00;;;;;;5001980;28;20061;-86
2023/05/30 08:52:01;;;;;;;0.08;0.08;;;13.00;1.00;;;;;;5017840;28;20131;-86
2023/05/30 08:54:34;;;;;;;0.10;0.10;;;13.00;1.00;;;;;;5015817;28;20046;-86
2023/05/30 08:57:14;;;;;;;0.08;0.08;;;12.90;1.00;;;;;;4997783;28;20046;-86
2023/05/30 08:59:42;;;;;;;0.15;0.15;;;12.90;1.00;;;;;;5016774;28;20111;-86
2023/05/30 09:02:08;;;;;;;0.10;0.10;;;12.80;1.00;;;;;;5018259;28;20049;-86
2023/05/30 09:04:36;;;;;;;0.17;0.10;;;12.80;1.00;;;;;;5016722;28;20053;-86
2023/05/30 09:07:03;;;;;;;0.13;0.13;;;12.70;1.00;;;;;;5017672;28;20046;-86
2023/05/30 09:09:32;;;;;;;0.20;0.20;;;12.80;1.00;;;;;;5001077;28;20054;-86
2023/05/30 09:11:58;;;;;;;0.20;0.10;;;12.80;1.00;;;;;;5016858;28;20049;-87
2023/05/30 09:14:24;;;;;;;1.17;1.08;;;12.80;1.00;;;;;;5017217;28;20045;-87
2023/05/30 09:16:50;;;;;;;0.10;0.10;;;12.80;1.00;;;;;;5019207;28;20103;-86
2023/05/30 09:19:16;;;;;;;0.10;0.10;;;12.80;1.00;;;;;;5018063;28;20655;-86
2023/05/30 09:21:42;;;;;;;0.10;0.10;;;12.80;1.00;;;;;;5004067;28;20045;-84
2023/05/30 09:24:08;;;;;;;0.08;0.08;;;12.80;1.00;;;;;;4989051;28;20056;-84
2023/05/30 09:26:34;;;;;;;0.10;0.10;;;12.80;1.00;;;;;;4989493;28;20057;-84
2023/05/30 09:29:12;;;;;;;0.10;0.10;;;13.00;1.00;;;;;;5003146;28;20125;-84
2023/05/30 09:31:40;;;;;;;0.15;0.15;;;13.10;1.00;;;;;;5020276;28;20488;-84
2023/05/30 09:34:06;;;;;;;0.00;0.00;;;13.10;1.00;;;;;;5021700;28;20050;-84
2023/05/30 09:36:32;;;;;;;0.03;0.03;;;13.10;1.00;;;;;;5017771;28;20050;-84
2023/05/30 09:39:04;;;;;;;0.10;0.10;;;13.10;1.00;;;;;;5022093;28;20566;-83
2023/05/30 09:41:30;;;;;;;0.40;0.20;;;13.10;1.00;;;;;;5022818;28;20399;-84
2023/05/30 09:43:57;;;;;;;0.47;0.47;;;13.10;1.00;;;;;;5004553;28;20049;-84
2023/05/30 09:46:25;;;;;;;0.17;0.13;;;13.10;1.00;;;;;;5020727;28;20124;-84
2023/05/30 09:48:51;;;;;;;0.15;0.15;;;13.10;1.00;;;;;;5019829;28;20136;-84
2023/05/30 09:51:17;;;;;;;0.13;0.10;;;13.10;1.00;;;;;;4990480;28;20174;-84
2023/05/30 09:53:58;;;;;;;0.10;0.10;;;13.00;1.00;;;;;;5021238;28;20050;-84
2023/05/30 09:56:34;;;;;;;0.25;0.25;;;13.10;1.00;;;;;;5021834;28;20133;-84
2023/05/30 09:59:11;;;;;;;0.03;0.03;;;13.10;1.00;;;;;;5022295;28;20047;-84
2023/05/30 10:01:47;;;;;;;0.00;0.00;;;13.10;1.00;;;;;;5019076;28;20077;-85
2023/05/30 10:04:16;;;;;;;0.08;0.08;;;13.10;1.00;;;;;;5001655;28;20111;-83
2023/05/30 10:06:43;;;;;;;0.22;0.08;;;13.20;1.00;;;;;;5002203;28;20056;-83
2023/05/30 10:09:11;;;;;;;0.17;0.10;;;13.30;1.00;;;;;;5022475;28;20081;-83
2023/05/30 10:11:38;;;;;;;0.20;0.20;;;13.40;1.00;;;;;;5020509;28;20065;-83
2023/05/30 10:14:05;;;;;;;0.10;0.10;;;13.50;1.00;;;;;;5005593;28;20066;-83
2023/05/30 10:16:34;;;;;;;0.43;0.30;;;13.60;1.00;;;;;;5021671;28;20068;-83
2023/05/30 10:19:04;;;;;;;0.10;0.00;;;13.60;1.00;;;;;;5021534;28;20121;-83
2023/05/30 10:21:32;;;;;;;0.20;0.10;;;13.60;1.00;;;;;;5020835;28;20527;-83
2023/05/30 10:23:59;;;;;;;0.10;0.10;;;13.70;1.00;;;;;;5019864;28;20050;-84
2023/05/30 10:26:34;;;;;;;0.10;0.10;;;13.80;1.00;;;;;;5021840;28;20099;-84
2023/05/30 10:29:04;;;;;;;0.05;0.05;;;13.70;1.00;;;;;;5020823;28;20050;-84
2023/05/30 10:31:32;;;;;;;0.08;0.08;;;13.80;1.00;;;;;;5020327;28;20048;-83
2023/05/30 10:34:02;;;;;;;0.10;0.05;;;13.80;1.00;;;;;;5016372;28;20100;-83
2023/05/30 10:36:28;;;;;;;0.03;0.03;;;13.80;1.00;;;;;;4995938;28;20538;-84
2023/05/30 10:39:10;;;;;;;0.00;0.00;;;13.80;1.00;;;;;;5001721;28;20124;-84
2023/05/30 10:41:47;;;;;;;0.05;0.05;;;13.80;1.00;;;;;;5022114;28;20400;-84
2023/05/30 10:44:32;;;;;;;;;;;13.90;1.00;;;;;;5004152;28;20053;-84
2023/05/30 10:47:40;;;;;;;0.10;0.10;;;13.80;1.00;;;;;;5019202;28;20257;-84
2023/05/30 10:50:15;;;;;;;0.00;0.00;;;13.80;1.00;;;;;;5021985;28;20339;-84
2023/05/30 10:52:43;;;;;;;0.10;0.10;;;13.80;1.00;;;;;;5018855;28;20046;-84
2023/05/30 10:55:10;;;;;;;0.10;0.10;;;13.80;1.00;;;;;;5002474;28;20041;-84
2023/05/30 10:57:36;;;;;;;0.20;0.10;;;13.90;1.00;;;;;;5005238;28;20545;-85
2023/05/30 11:00:29;;;;;;;0.08;0.08;;;13.90;1.00;;;;;;5019579;28;20092;-85
2023/05/30 11:02:57;;;;;;;0.00;0.00;;;14.00;1.00;;;;;;5019583;28;20483;-85
2023/05/30 11:05:32;;;;;;;0.10;0.10;;;14.00;1.00;;;;;;5014915;28;20455;-85
2023/05/30 11:08:00;;;;;;;0.10;0.10;;;13.90;1.00;;;;;;5018705;28;20059;-85
2023/05/30 11:10:31;;;;;;;0.00;0.00;;;13.90;1.00;;;;;;5004000;28;20054;-85
2023/05/30 11:13:08;;;;;;;0.20;0.10;;;13.90;1.00;;;;;;5021734;28;20412;-85
2023/05/30 11:15:35;;;;;;;0.10;0.10;;;13.80;1.00;;;;;;5040552;28;20051;-84
2023/05/30 11:18:13;;;;;;;0.17;0.03;;;13.80;1.00;;;;;;5008388;28;20045;-85
2023/05/30 11:20:50;;;;;;;0.10;0.10;;;13.80;1.00;;;;;;5022505;28;20038;-85
2023/05/30 11:23:17;;;;;;;0.00;0.00;;;13.80;1.00;;;;;;5005363;28;20072;-85
2023/05/30 11:25:44;;;;;;;0.10;0.10;;;13.80;1.00;;;;;;5020145;28;20050;-85
2023/05/30 11:28:15;;;;;;;0.10;0.10;;;13.80;1.00;;;;;;5019715;28;20499;-85
2023/05/30 11:30:47;;;;;;;0.00;0.00;;;13.80;1.00;;;;;;5020201;28;20103;-85
2023/05/30 11:33:14;;;;;;;0.00;0.00;;;13.90;1.00;;;;;;4986698;28;20052;-85
2023/05/30 11:35:46;;;;;;;1.25;0.10;;;13.90;1.00;;;;;;5020092;28;20044;-85
2023/05/30 11:38:19;;;;;;;0.10;0.10;;;13.90;1.00;;;;;;5023309;28;20067;-85
2023/05/30 11:40:46;;;;;;;0.03;0.03;;;14.00;1.00;;;;;;5022500;28;20054;-85
2023/05/30 11:43:15;;;;;;;0.00;0.00;;;14.10;1.00;;;;;;5022445;28;20041;-85
2023/05/30 11:45:42;;;;;;;0.10;0.10;;;14.20;1.00;;;;;;5040135;28;20526;-85
2023/05/30 11:48:09;;;;;;;0.28;0.10;;;14.30;1.00;;;;;;5006039;28;20124;-85
2023/05/30 11:50:39;;;;;;;0.20;0.20;;;14.30;1.00;;;;;;5006999;28;20049;-85
2023/05/30 11:53:16;;;;;;;0.30;0.30;;;14.30;1.00;;;;;;5020217;28;20099;-86
2023/05/30 11:55:45;;;;;;;0.23;0.13;;;14.40;1.00;;;;;;5020753;28;20453;-85
2023/05/30 11:58:11;;;;;;;0.10;0.10;;;14.40;1.00;;;;;;5040187;28;20049;-85
2023/05/30 12:00:41;;;;;;;0.20;0.20;;;14.30;1.00;;;;;;5024021;28;20051;-85
2023/05/30 12:03:08;;;;;;;0.10;0.10;;;14.30;1.00;;;;;;5021692;28;20085;-85
2023/05/30 12:05:34;;;;;;;0.00;0.00;;;14.30;1.00;;;;;;5003111;28;20141;-85
2023/05/30 12:08:06;;;;;;;0.10;0.10;;;14.30;1.00;;;;;;5018147;28;20121;-84
2023/05/30 12:10:32;;;;;;;0.15;0.00;;;14.30;1.00;;;;;;5022740;28;20048;-87
2023/05/30 12:13:02;;;;;;;0.00;0.00;;;14.30;1.00;;;;;;5019938;28;20471;-85
2023/05/30 12:15:27;;;;;;;0.10;0.10;;;14.40;1.00;;;;;;5004524;28;20049;-86
2023/05/30 12:17:53;;;;;;;0.10;0.10;;;14.40;1.00;;;;;;5007051;28;20099;-86
2023/05/30 12:20:20;;;;;;;0.05;0.05;;;14.40;1.00;;;;;;5005480;28;20042;-85
2023/05/30 12:22:47;;;;;;;0.00;0.00;;;14.50;1.00;;;;;;5021194;28;20041;-86
2023/05/30 12:25:14;;;;;;;0.00;0.00;;;14.60;1.00;;;;;;5020413;28;20106;-85
2023/05/30 12:27:47;;;;;;;0.20;0.20;;;14.70;1.00;;;;;;5023576;28;20384;-85
2023/05/30 12:30:17;;;;;;;0.00;0.00;;;14.80;1.00;;;;;;5003945;28;20075;-86
2023/05/30 12:32:44;;;;;;;0.20;0.10;;;14.90;1.00;;;;;;4991050;28;20049;-86
2023/05/30 12:35:12;;;;;;;0.05;0.05;;;15.00;1.00;;;;;;5002845;28;20381;-86
2023/05/30 12:37:38;;;;;;;0.10;0.10;;;15.00;1.00;;;;;;5002078;28;20395;-86
2023/05/30 12:40:05;;;;;;;0.40;0.28;;;14.20;1.00;;;;;;5035829;28;20049;-86
2023/05/30 12:42:32;;;;;;;0.00;0.00;;;14.90;1.00;;;;;;5022132;28;20041;-85
2023/05/30 12:45:03;;;;;;;0.32;0.00;;;14.90;1.00;;;;;;5006233;28;20095;-86
2023/05/30 12:47:29;;;;;;;0.10;0.10;;;14.90;99.90;;;;;;5022009;28;20079;-85
2023/05/30 12:49:59;;;;;;;0.00;0.00;;;14.90;1.00;;;;;;5022501;28;20470;-85
2023/05/30 12:52:26;;;;;;;0.22;0.10;;;14.90;1.00;;;;;;5021891;28;20142;-85
2023/05/30 12:54:52;;;;;;;0.20;0.20;;;14.90;1.00;;;;;;5023273;28;20069;-84
2023/05/30 12:57:20;;;;;;;0.30;0.30;;;14.90;1.00;;;;;;5024686;28;20553;-82
2023/05/30 12:59:47;;;;;;;0.10;0.10;;;14.90;1.00;;;;;;4999218;28;20050;-82
2023/05/30 13:02:13;;;;;;;0.00;0.00;;;14.80;1.00;;;;;;4982838;28;20053;-82
2023/05/30 13:04:40;;;;;;;0.00;0.00;;;14.80;1.00;;;;;;4983283;28;20177;-82